Time;durP1;ratioP1;P1;durP2;ratioP2;P2;SDS_P1;SDS_P2;PMS_P1;PMS_P2;Temp;Humidity;BMP_temperature;BMP_pressure;BME280_temperature;BME280_humidity;BME280_pressure;Samples;Min_cycle;Max_cycle;Signal;HPM_P1;HPM_P2
2023/04/29 00:01:19;;;;;;;38.00;19.48;;;;;;;;;;4956584;28;92576;-74
2023/04/29 00:03:46;;;;;;;45.03;21.52;;;;;;;;;;4955593;28;93410;-74
2023/04/29 00:06:13;;;;;;;48.17;22.55;;;;;;;;;;4953535;28;95968;-74
2023/04/29 00:08:39;;;;;;;48.97;23.10;;;;;;;;;;4955501;28;92537;-74
2023/04/29 00:11:06;;;;;;;50.85;23.60;;;;;;;;;;4975154;28;93285;-73
2023/04/29 00:13:32;;;;;;;48.05;22.42;;;;;;;;;;4973554;28;92441;-73
2023/04/29 00:15:59;;;;;;;54.03;23.83;;;;;;;;;;4974163;28;93202;-74
2023/04/29 00:18:25;;;;;;;58.95;23.27;;;;;;;;;;4955930;28;94682;-74
2023/04/29 00:20:51;;;;;;;46.10;23.42;;;;;;;;;;4954066;28;92475;-74
2023/04/29 00:23:18;;;;;;;45.25;22.58;;;;;;;;;;4955997;28;93367;-74
2023/04/29 00:25:44;;;;;;;47.35;23.63;;;;;;;;;;4954826;28;94293;-74
2023/04/29 00:28:11;;;;;;;53.15;24.65;;;;;;;;;;4954997;28;92441;-74
2023/04/29 00:30:37;;;;;;;46.55;23.65;;;;;;;;;;4956668;28;94811;-71
2023/04/29 00:33:03;;;;;;;53.75;24.63;;;;;;;;;;4955825;28;92690;-71
2023/04/29 00:35:30;;;;;;;51.40;24.55;;;;;;;;;;4973650;28;92670;-72
2023/04/29 00:37:57;;;;;;;50.35;24.67;;;;;;;;;;4974387;28;94643;-72
2023/04/29 00:40:23;;;;;;;51.70;25.10;;;;;;;;;;4974372;28;92424;-71
2023/04/29 00:42:49;;;;;;;51.80;24.02;;;;;;;;;;4974121;28;93249;-72
2023/04/29 00:45:16;;;;;;;52.65;24.98;;;;;;;;;;4973919;28;93798;-72
2023/04/29 00:47:42;;;;;;;49.10;24.92;;;;;;;;;;4974542;28;91802;-74
2023/04/29 00:50:08;;;;;;;52.78;25.15;;;;;;;;;;4973750;28;93491;-74
2023/04/29 00:52:36;;;;;;;56.08;24.38;;;;;;;;;;4976857;28;94266;-75
2023/04/29 00:55:04;;;;;;;52.00;24.80;;;;;;;;;;4972344;28;94863;-74
2023/04/29 00:57:30;;;;;;;57.53;25.90;;;;;;;;;;4974350;28;94464;-73
2023/04/29 00:59:57;;;;;;;54.00;25.10;;;;;;;;;;4973529;28;93311;-73
2023/04/29 01:02:25;;;;;;;55.78;24.08;;;;;;;;;;4974245;28;93190;-73
2023/04/29 01:04:51;;;;;;;53.33;25.60;;;;;;;;;;4974194;28;93358;-73
2023/04/29 01:07:23;;;;;;;56.33;26.25;;;;;;;;;;4970701;28;92484;-73
2023/04/29 01:10:05;;;;;;;57.40;25.92;;;;;;;;;;4955061;28;94347;-73
2023/04/29 01:12:35;;;;;;;47.30;24.17;;;;;;;;;;4955179;28;92560;-73
2023/04/29 01:15:21;;;;;;;50.13;23.33;;;;;;;;;;4957636;28;92449;-73
2023/04/29 01:18:05;;;;;;;51.95;24.48;;;;;;;;;;4969465;28;94528;-73
2023/04/29 01:20:32;;;;;;;49.67;24.00;;;;;;;;;;4972202;28;95124;-74
2023/04/29 01:22:58;;;;;;;50.22;24.65;;;;;;;;;;4954139;28;96955;-73
2023/04/29 01:25:25;;;;;;;51.70;24.52;;;;;;;;;;4954835;28;94438;-73
2023/04/29 01:28:14;;;;;;;54.55;24.27;;;;;;;;;;4954130;28;92499;-73
2023/04/29 01:30:46;;;;;;;62.90;26.45;;;;;;;;;;4970432;28;93095;-73
2023/04/29 01:33:19;;;;;;;59.88;26.05;;;;;;;;;;4968918;28;93797;-74
2023/04/29 01:36:04;;;;;;;51.17;25.25;;;;;;;;;;4967418;28;92684;-73
2023/04/29 01:38:33;;;;;;;47.33;23.63;;;;;;;;;;4968770;28;93414;-73
2023/04/29 01:41:03;;;;;;;48.90;23.85;;;;;;;;;;4970499;28;92559;-73
2023/04/29 01:43:31;;;;;;;48.42;23.40;;;;;;;;;;4969979;28;93083;-73
2023/04/29 01:45:58;;;;;;;44.95;22.88;;;;;;;;;;4969325;28;95783;-72
2023/04/29 01:48:24;;;;;;;53.92;24.00;;;;;;;;;;4950620;28;92946;-73
2023/04/29 01:50:51;;;;;;;53.15;23.40;;;;;;;;;;4951886;28;94419;-73
2023/04/29 01:53:17;;;;;;;48.15;23.15;;;;;;;;;;4953193;28;93377;-72
2023/04/29 01:55:43;;;;;;;39.88;21.55;;;;;;;;;;4971115;28;92467;-73
2023/04/29 01:58:10;;;;;;;41.83;21.85;;;;;;;;;;4970078;28;93273;-72
2023/04/29 02:00:37;;;;;;;40.67;21.60;;;;;;;;;;4972836;28;93441;-73
2023/04/29 02:03:04;;;;;;;42.78;22.25;;;;;;;;;;4971178;28;93407;-73
2023/04/29 02:05:32;;;;;;;49.05;22.83;;;;;;;;;;4970904;28;93381;-74
2023/04/29 02:08:00;;;;;;;44.85;21.48;;;;;;;;;;4960864;28;92478;-73
2023/04/29 02:10:26;;;;;;;35.60;21.08;;;;;;;;;;4952423;28;94798;-73
2023/04/29 02:12:53;;;;;;;42.17;21.27;;;;;;;;;;4956441;28;93259;-73
2023/04/29 02:15:20;;;;;;;40.42;21.55;;;;;;;;;;4957537;28;92493;-73
2023/04/29 02:17:46;;;;;;;43.88;21.45;;;;;;;;;;4957864;28;93306;-73
2023/04/29 02:20:12;;;;;;;37.90;21.50;;;;;;;;;;4956801;28;93453;-72
2023/04/29 02:22:39;;;;;;;45.80;21.17;;;;;;;;;;4959873;28;92469;-73
2023/04/29 02:25:05;;;;;;;38.17;21.10;;;;;;;;;;4956925;28;93765;-73
2023/04/29 02:27:32;;;;;;;43.35;21.55;;;;;;;;;;4957570;28;91687;-73
2023/04/29 02:29:58;;;;;;;40.42;20.50;;;;;;;;;;4960509;28;93812;-73
2023/04/29 02:32:25;;;;;;;36.55;19.35;;;;;;;;;;4972003;28;93400;-72
2023/04/29 02:34:51;;;;;;;44.53;20.17;;;;;;;;;;4955779;28;95339;-72
2023/04/29 02:37:17;;;;;;;41.85;20.30;;;;;;;;;;4964345;28;96590;-73
2023/04/29 02:39:44;;;;;;;42.00;21.10;;;;;;;;;;4972460;28;93454;-73
2023/04/29 02:42:10;;;;;;;36.90;19.75;;;;;;;;;;4960639;28;92558;-73
2023/04/29 02:44:37;;;;;;;45.03;19.67;;;;;;;;;;4973909;28;94523;-74
2023/04/29 02:47:03;;;;;;;41.20;20.10;;;;;;;;;;4971904;28;92508;-74
2023/04/29 02:49:30;;;;;;;35.85;19.63;;;;;;;;;;4960875;28;93106;-73
2023/04/29 02:51:57;;;;;;;33.55;18.25;;;;;;;;;;4957455;28;93173;-73
2023/04/29 02:54:23;;;;;;;36.30;17.60;;;;;;;;;;4956356;28;92439;-73
2023/04/29 02:56:49;;;;;;;39.25;18.92;;;;;;;;;;4956261;28;93127;-73
2023/04/29 02:59:16;;;;;;;41.13;19.33;;;;;;;;;;4953617;28;95715;-73
2023/04/29 03:01:42;;;;;;;35.45;17.60;;;;;;;;;;4956569;28;93062;-73
2023/04/29 03:04:09;;;;;;;34.65;17.92;;;;;;;;;;4958973;28;94146;-73
2023/04/29 03:06:35;;;;;;;32.90;17.27;;;;;;;;;;4960445;28;92525;-72
2023/04/29 03:09:01;;;;;;;32.25;16.90;;;;;;;;;;4956741;28;93175;-73
2023/04/29 03:11:28;;;;;;;37.80;17.23;;;;;;;;;;4956002;28;93489;-73
2023/04/29 03:13:54;;;;;;;29.83;16.30;;;;;;;;;;4956117;28;92401;-73
2023/04/29 03:16:20;;;;;;;30.60;17.00;;;;;;;;;;4960444;28;91750;-73
2023/04/29 03:18:47;;;;;;;33.28;16.73;;;;;;;;;;4975592;28;94594;-73
2023/04/29 03:21:14;;;;;;;32.05;16.42;;;;;;;;;;4969667;28;92569;-73
2023/04/29 03:23:40;;;;;;;30.00;15.93;;;;;;;;;;4959574;28;94964;-73
2023/04/29 03:26:06;;;;;;;30.30;15.07;;;;;;;;;;4977686;28;93943;-72
2023/04/29 03:28:33;;;;;;;28.33;15.65;;;;;;;;;;4975819;28;93341;-74
2023/04/29 03:30:59;;;;;;;29.02;15.48;;;;;;;;;;4975163;28;93444;-73
2023/04/29 03:33:26;;;;;;;29.88;14.80;;;;;;;;;;4975204;28;92777;-73
2023/04/29 03:35:52;;;;;;;30.25;14.95;;;;;;;;;;4975285;28;93329;-73
2023/04/29 03:38:18;;;;;;;27.35;15.13;;;;;;;;;;4975116;28;93696;-73
2023/04/29 03:40:45;;;;;;;29.30;16.27;;;;;;;;;;4969260;28;91764;-73
2023/04/29 03:43:12;;;;;;;26.15;15.65;;;;;;;;;;4956171;28;92825;-73
2023/04/29 03:45:39;;;;;;;29.55;15.98;;;;;;;;;;4955205;28;93529;-74
2023/04/29 03:48:06;;;;;;;30.17;15.90;;;;;;;;;;4975044;28;94862;-74
2023/04/29 03:50:33;;;;;;;31.45;16.02;;;;;;;;;;4970191;28;92601;-74
2023/04/29 03:52:59;;;;;;;33.45;16.13;;;;;;;;;;4975404;28;92525;-74
2023/04/29 03:55:25;;;;;;;27.90;16.08;;;;;;;;;;4972478;28;93259;-73
2023/04/29 03:57:52;;;;;;;30.23;15.80;;;;;;;;;;4970030;28;94562;-74
2023/04/29 04:00:18;;;;;;;28.58;16.08;;;;;;;;;;4961192;28;92577;-74
2023/04/29 04:02:44;;;;;;;28.08;15.80;;;;;;;;;;4975057;28;94251;-73
2023/04/29 04:05:11;;;;;;;28.52;15.63;;;;;;;;;;4965481;28;93002;-73
2023/04/29 04:07:38;;;;;;;27.90;15.82;;;;;;;;;;4955377;28;92435;-73
2023/04/29 04:10:04;;;;;;;26.23;15.65;;;;;;;;;;4958375;28;94234;-74
2023/04/29 04:12:31;;;;;;;23.25;15.93;;;;;;;;;;4953854;28;94843;-73
2023/04/29 04:14:58;;;;;;;26.58;16.70;;;;;;;;;;4962208;28;96722;-73
2023/04/29 04:17:24;;;;;;;29.77;16.30;;;;;;;;;;4964818;28;94487;-73
2023/04/29 04:19:51;;;;;;;24.88;15.85;;;;;;;;;;4955862;28;92445;-72
2023/04/29 04:22:17;;;;;;;27.50;16.63;;;;;;;;;;4959056;28;94115;-72
2023/04/29 04:24:44;;;;;;;27.15;16.25;;;;;;;;;;4973533;28;93073;-73
2023/04/29 04:27:10;;;;;;;29.80;15.25;;;;;;;;;;4972694;28;92571;-72
2023/04/29 04:29:36;;;;;;;23.38;15.75;;;;;;;;;;4976830;28;93496;-72
2023/04/29 04:32:03;;;;;;;25.52;15.30;;;;;;;;;;4978071;28;92535;-72
2023/04/29 04:34:29;;;;;;;24.08;14.90;;;;;;;;;;4981991;28;94820;-72
2023/04/29 04:36:56;;;;;;;27.45;15.20;;;;;;;;;;4970717;28;97240;-72
2023/04/29 04:39:22;;;;;;;23.92;14.18;;;;;;;;;;4963188;28;92910;-72
2023/04/29 04:41:48;;;;;;;23.85;14.02;;;;;;;;;;4970007;28;94225;-72
2023/04/29 04:44:15;;;;;;;21.77;13.75;;;;;;;;;;4972866;28;94448;-72
2023/04/29 04:46:42;;;;;;;23.60;13.65;;;;;;;;;;4973981;28;92428;-73
2023/04/29 04:49:08;;;;;;;21.42;13.55;;;;;;;;;;4969149;28;93860;-73
2023/04/29 04:51:34;;;;;;;22.85;14.07;;;;;;;;;;4977421;28;93500;-72
2023/04/29 04:54:01;;;;;;;23.90;13.35;;;;;;;;;;4973002;28;93290;-73
2023/04/29 04:56:27;;;;;;;26.95;13.25;;;;;;;;;;4972739;28;93282;-72
2023/04/29 04:58:53;;;;;;;19.95;13.57;;;;;;;;;;4973340;28;92424;-72
2023/04/29 05:01:20;;;;;;;20.65;13.75;;;;;;;;;;4970562;28;94849;-73
2023/04/29 05:03:46;;;;;;;30.70;13.80;;;;;;;;;;4959891;28;94465;-72
2023/04/29 05:06:13;;;;;;;29.75;13.18;;;;;;;;;;4972754;28;92614;-72
2023/04/29 05:08:40;;;;;;;22.20;13.30;;;;;;;;;;4971171;28;94487;-72
2023/04/29 05:11:14;;;;;;;31.20;13.57;;;;;;;;;;4971828;28;93489;-72
2023/04/29 05:13:40;;;;;;;24.85;14.15;;;;;;;;;;4961767;28;92439;-73
2023/04/29 05:16:06;;;;;;;21.92;14.43;;;;;;;;;;4970509;28;93536;-73
2023/04/29 05:18:33;;;;;;;23.40;13.85;;;;;;;;;;4971806;28;92245;-72
2023/04/29 05:21:00;;;;;;;28.63;13.13;;;;;;;;;;4969483;28;92355;-73
2023/04/29 05:23:26;;;;;;;23.17;13.60;;;;;;;;;;4963161;28;93459;-72
2023/04/29 05:25:53;;;;;;;28.63;14.02;;;;;;;;;;4952665;28;95088;-72
2023/04/29 05:28:19;;;;;;;20.33;13.40;;;;;;;;;;4954156;28;95582;-73
2023/04/29 05:30:46;;;;;;;20.30;13.63;;;;;;;;;;4954096;28;93480;-73
2023/04/29 05:33:12;;;;;;;23.20;13.05;;;;;;;;;;4954165;28;92442;-73
2023/04/29 05:35:39;;;;;;;23.48;13.60;;;;;;;;;;4959715;28;93369;-72
2023/04/29 05:38:05;;;;;;;26.15;13.35;;;;;;;;;;4972225;28;92440;-72
2023/04/29 05:40:31;;;;;;;21.23;12.95;;;;;;;;;;4961585;28;93285;-72
2023/04/29 05:42:58;;;;;;;28.17;13.30;;;;;;;;;;4954531;28;93998;-73
2023/04/29 05:45:25;;;;;;;22.73;13.23;;;;;;;;;;4966701;28;92681;-74
2023/04/29 05:47:51;;;;;;;21.00;12.88;;;;;;;;;;4970313;28;93024;-78
2023/04/29 05:50:17;;;;;;;29.63;13.27;;;;;;;;;;4959817;28;95786;-75
2023/04/29 05:52:44;;;;;;;21.73;12.25;;;;;;;;;;4963513;28;93004;-74
2023/04/29 05:55:10;;;;;;;18.92;12.70;;;;;;;;;;4968823;28;93354;-74
2023/04/29 05:57:37;;;;;;;24.83;13.75;;;;;;;;;;4969555;28;94447;-74
2023/04/29 06:00:03;;;;;;;21.90;13.30;;;;;;;;;;4962272;28;93269;-74
2023/04/29 06:02:30;;;;;;;26.13;13.40;;;;;;;;;;4953596;28;93352;-76
2023/04/29 06:04:56;;;;;;;27.17;13.85;;;;;;;;;;4953252;28;92640;-75
2023/04/29 06:07:23;;;;;;;31.10;13.68;;;;;;;;;;4953971;28;93171;-74
2023/04/29 06:09:49;;;;;;;27.08;13.85;;;;;;;;;;4953381;28;93764;-75
2023/04/29 06:12:16;;;;;;;24.20;13.98;;;;;;;;;;4952673;28;92605;-75
2023/04/29 06:14:42;;;;;;;26.73;13.90;;;;;;;;;;4952655;28;94768;-74
2023/04/29 06:17:09;;;;;;;26.95;14.00;;;;;;;;;;4971824;28;94704;-74
2023/04/29 06:19:36;;;;;;;23.33;13.77;;;;;;;;;;4976466;28;92613;-72
2023/04/29 06:22:03;;;;;;;24.05;14.25;;;;;;;;;;4960371;28;93468;-75
2023/04/29 06:24:29;;;;;;;36.13;14.70;;;;;;;;;;4953539;28;92541;-75
2023/04/29 06:26:55;;;;;;;30.50;15.68;;;;;;;;;;4953288;28;93512;-73
2023/04/29 06:29:22;;;;;;;31.55;15.52;;;;;;;;;;4969160;28;94491;-74
2023/04/29 06:31:48;;;;;;;28.42;14.30;;;;;;;;;;4970128;28;91977;-74
2023/04/29 06:34:14;;;;;;;23.25;13.70;;;;;;;;;;4971252;28;93134;-73
2023/04/29 06:36:40;;;;;;;25.42;13.23;;;;;;;;;;4971945;28;93367;-74
2023/04/29 06:39:07;;;;;;;37.33;15.52;;;;;;;;;;4974044;28;94856;-74
2023/04/29 06:41:33;;;;;;;31.70;14.40;;;;;;;;;;4972556;28;93143;-74
2023/04/29 06:44:00;;;;;;;25.25;14.63;;;;;;;;;;4973226;28;92368;-74
2023/04/29 06:46:27;;;;;;;31.33;14.40;;;;;;;;;;4972718;28;93205;-74
2023/04/29 06:48:54;;;;;;;29.92;14.32;;;;;;;;;;4971413;28;94851;-74
2023/04/29 06:51:20;;;;;;;26.42;14.38;;;;;;;;;;4972986;28;92853;-73
2023/04/29 06:53:47;;;;;;;26.52;14.68;;;;;;;;;;4954165;28;97115;-74
2023/04/29 06:56:13;;;;;;;31.70;15.05;;;;;;;;;;4960338;28;93786;-74
2023/04/29 06:58:42;;;;;;;23.08;13.07;;;;;;;;;;4975817;28;92367;-75
2023/04/29 07:01:09;;;;;;;24.85;14.15;;;;;;;;;;4979087;28;93247;-75
2023/04/29 07:03:35;;;;;;;27.98;14.02;;;;;;;;;;4973608;28;94874;-74
2023/04/29 07:06:02;;;;;;;35.05;16.10;;;;;;;;;;4964385;28;95649;-74
2023/04/29 07:08:28;;;;;;;35.65;13.15;;;;;;;;;;4964154;28;94256;-75
2023/04/29 07:10:55;;;;;;;24.55;13.02;;;;;;;;;;4956403;28;92478;-75
2023/04/29 07:13:21;;;;;;;30.50;13.57;;;;;;;;;;4957943;28;93195;-74
2023/04/29 07:15:48;;;;;;;24.73;12.75;;;;;;;;;;4975237;28;93287;-76
2023/04/29 07:18:14;;;;;;;26.50;12.77;;;;;;;;;;4975952;28;93170;-75
2023/04/29 07:20:42;;;;;;;28.38;12.68;;;;;;;;;;4974972;28;94268;-76
2023/04/29 07:23:08;;;;;;;29.85;13.88;;;;;;;;;;4976624;28;93437;-75
2023/04/29 07:25:34;;;;;;;24.60;12.75;;;;;;;;;;4971178;28;93225;-74
2023/04/29 07:28:01;;;;;;;18.70;11.13;;;;;;;;;;4973960;28;95880;-74
2023/04/29 07:30:27;;;;;;;28.98;12.27;;;;;;;;;;4975797;28;92470;-74
2023/04/29 07:32:53;;;;;;;28.20;12.75;;;;;;;;;;4975280;28;94311;-74
2023/04/29 07:35:20;;;;;;;23.40;11.80;;;;;;;;;;4971066;28;93499;-75
2023/04/29 07:37:47;;;;;;;22.35;11.85;;;;;;;;;;4962037;28;92474;-77
2023/04/29 07:40:13;;;;;;;25.58;11.80;;;;;;;;;;4966500;28;94056;-75
2023/04/29 07:42:39;;;;;;;20.05;11.15;;;;;;;;;;4968489;28;94395;-75
2023/04/29 07:45:06;;;;;;;20.30;10.55;;;;;;;;;;4965956;28;91982;-74
2023/04/29 07:47:32;;;;;;;25.60;11.45;;;;;;;;;;4966139;28;93598;-75
2023/04/29 07:50:00;;;;;;;17.55;10.32;;;;;;;;;;4975544;28;92550;-74
2023/04/29 07:52:27;;;;;;;23.63;10.73;;;;;;;;;;4956557;28;94929;-74
2023/04/29 07:54:55;;;;;;;23.27;11.55;;;;;;;;;;4964012;28;93403;-74
2023/04/29 07:57:22;;;;;;;18.15;9.93;;;;;;;;;;4974523;28;92884;-74
2023/04/29 07:59:54;;;;;;;24.85;9.98;;;;;;;;;;4971299;28;94287;-74
2023/04/29 08:02:20;;;;;;;16.55;9.52;;;;;;;;;;4962458;28;93490;-74
2023/04/29 08:04:47;;;;;;;16.15;8.63;;;;;;;;;;4956318;28;92517;-74
2023/04/29 08:07:14;;;;;;;18.40;9.07;;;;;;;;;;4973028;28;93298;-74
2023/04/29 08:09:40;;;;;;;17.52;9.13;;;;;;;;;;4969335;28;92524;-74
2023/04/29 08:12:07;;;;;;;19.75;9.48;;;;;;;;;;4963576;28;92449;-74
2023/04/29 08:14:33;;;;;;;16.70;8.35;;;;;;;;;;4966527;28;93433;-72
2023/04/29 08:16:59;;;;;;;17.55;8.13;;;;;;;;;;4963348;28;94910;-74
2023/04/29 08:19:25;;;;;;;13.05;7.97;;;;;;;;;;4964081;28;95878;-76
2023/04/29 08:21:52;;;;;;;16.38;7.88;;;;;;;;;;4973365;28;93414;-72
2023/04/29 08:24:20;;;;;;;14.15;8.20;;;;;;;;;;4972389;28;92604;-73
2023/04/29 08:26:46;;;;;;;13.95;7.13;;;;;;;;;;4969117;28;93137;-72
2023/04/29 08:29:12;;;;;;;15.40;8.02;;;;;;;;;;4960202;28;93544;-73
2023/04/29 08:31:39;;;;;;;12.10;7.63;;;;;;;;;;4974262;28;93142;-75
2023/04/29 08:34:06;;;;;;;13.18;7.05;;;;;;;;;;4975013;28;92629;-74
2023/04/29 08:36:32;;;;;;;10.45;6.38;;;;;;;;;;4975060;28;92458;-73
2023/04/29 08:38:58;;;;;;;11.88;7.43;;;;;;;;;;4967002;28;93761;-74
2023/04/29 08:41:25;;;;;;;13.82;6.93;;;;;;;;;;4961363;28;95838;-73
2023/04/29 08:43:52;;;;;;;15.82;7.45;;;;;;;;;;4974282;28;94078;-75
2023/04/29 08:46:19;;;;;;;17.05;6.95;;;;;;;;;;4972472;28;93768;-74
2023/04/29 08:48:46;;;;;;;10.75;6.53;;;;;;;;;;4961832;28;94009;-73
2023/04/29 08:51:13;;;;;;;12.52;6.90;;;;;;;;;;4971717;28;93413;-73
2023/04/29 08:53:39;;;;;;;12.52;7.13;;;;;;;;;;4970920;28;93512;-73
2023/04/29 08:56:12;;;;;;;15.63;7.43;;;;;;;;;;4961012;28;93533;-73
2023/04/29 08:58:39;;;;;;;17.15;7.22;;;;;;;;;;4967469;28;93319;-72
2023/04/29 09:01:09;;;;;;;10.02;6.22;;;;;;;;;;4963608;28;92681;-74
2023/04/29 09:03:47;;;;;;;13.80;7.28;;;;;;;;;;4965347;28;92894;-74
2023/04/29 09:06:14;;;;;;;15.95;6.28;;;;;;;;;;4965008;28;95699;-72
2023/04/29 09:08:41;;;;;;;11.68;7.03;;;;;;;;;;4971794;28;92564;-73
2023/04/29 09:11:08;;;;;;;11.15;6.57;;;;;;;;;;4969088;28;92657;-72
2023/04/29 09:13:34;;;;;;;13.77;5.82;;;;;;;;;;4964449;28;94477;-74
2023/04/29 09:16:00;;;;;;;13.38;6.47;;;;;;;;;;4972747;28;94046;-73
2023/04/29 09:18:44;;;;;;;14.00;6.70;;;;;;;;;;4961034;28;93689;-72
2023/04/29 09:21:13;;;;;;;11.73;6.72;;;;;;;;;;4957635;28;93094;-73
2023/04/29 09:23:39;;;;;;;10.25;6.88;;;;;;;;;;4962985;28;92120;-72
2023/04/29 09:26:05;;;;;;;15.82;6.45;;;;;;;;;;4965210;28;93821;-77
2023/04/29 09:28:32;;;;;;;11.27;6.03;;;;;;;;;;4966203;28;93434;-81
2023/04/29 09:31:00;;;;;;;11.95;6.28;;;;;;;;;;4955397;28;94958;-75
2023/04/29 09:33:30;;;;;;;12.63;6.03;;;;;;;;;;4967247;28;95542;-74
2023/04/29 09:35:56;;;;;;;9.93;6.45;;;;;;;;;;4970275;28;92603;-73
2023/04/29 09:38:22;;;;;;;9.20;6.38;;;;;;;;;;4968690;28;93157;-74
2023/04/29 09:40:50;;;;;;;17.63;6.85;;;;;;;;;;4965250;28;94438;-76
2023/04/29 09:43:22;;;;;;;14.25;6.35;;;;;;;;;;4973193;28;92467;-73
2023/04/29 09:45:49;;;;;;;10.48;6.18;;;;;;;;;;4972049;28;93501;-74
2023/04/29 09:48:16;;;;;;;11.90;6.55;;;;;;;;;;4967393;28;93478;-73
2023/04/29 09:50:43;;;;;;;11.70;6.70;;;;;;;;;;4960756;28;93211;-74
2023/04/29 09:53:10;;;;;;;11.23;6.40;;;;;;;;;;4966121;28;94343;-73
2023/04/29 09:55:56;;;;;;;9.25;6.32;;;;;;;;;;4968847;28;95838;-74
2023/04/29 09:58:30;;;;;;;10.85;5.75;;;;;;;;;;4963927;28;95527;-74
2023/04/29 10:01:02;;;;;;;18.35;6.07;;;;;;;;;;4961222;28;94869;-74
2023/04/29 10:03:31;;;;;;;11.57;6.18;;;;;;;;;;4961088;28;92548;-74
2023/04/29 10:05:59;;;;;;;9.68;5.45;;;;;;;;;;4969116;28;93157;-74
2023/04/29 10:08:25;;;;;;;12.40;5.60;;;;;;;;;;4953225;28;93516;-75
2023/04/29 10:10:56;;;;;;;14.30;5.38;;;;;;;;;;4958222;28;94560;-74
2023/04/29 10:13:24;;;;;;;11.32;5.22;;;;;;;;;;4958963;28;94616;-75
2023/04/29 10:15:55;;;;;;;12.25;5.93;;;;;;;;;;4961249;28;93681;-74
2023/04/29 10:18:25;;;;;;;10.48;4.63;;;;;;;;;;4969376;28;93838;-75
2023/04/29 10:20:52;;;;;;;7.93;4.85;;;;;;;;;;4963770;28;97239;-75
2023/04/29 10:23:19;;;;;;;11.85;5.72;;;;;;;;;;4966720;28;92448;-75
2023/04/29 10:25:46;;;;;;;12.57;5.25;;;;;;;;;;4972054;28;94341;-75
2023/04/29 10:28:15;;;;;;;7.90;5.38;;;;;;;;;;4955858;28;92491;-75
2023/04/29 10:30:43;;;;;;;8.55;4.85;;;;;;;;;;4965276;28;92583;-75
2023/04/29 10:33:10;;;;;;;9.25;5.20;;;;;;;;;;4963630;28;93873;-74
2023/04/29 10:35:37;;;;;;;8.88;5.25;;;;;;;;;;4965152;28;93479;-75
2023/04/29 10:38:07;;;;;;;9.63;5.28;;;;;;;;;;4974102;28;91731;-74
2023/04/29 10:40:33;;;;;;;;;;;;;;;;;;4972768;28;92435;-75
2023/04/29 10:43:00;;;;;;;9.10;4.68;;;;;;;;;;4961035;28;118750;-75
2023/04/29 10:45:35;;;;;;;10.00;4.85;;;;;;;;;;4965711;28;95391;-76
2023/04/29 10:48:01;;;;;;;14.40;5.95;;;;;;;;;;4974259;28;94491;-75
2023/04/29 10:50:28;;;;;;;9.10;5.05;;;;;;;;;;4970091;28;92773;-74
2023/04/29 10:52:55;;;;;;;7.88;4.93;;;;;;;;;;4959462;28;94537;-72
2023/04/29 10:55:24;;;;;;;12.07;5.28;;;;;;;;;;4974624;28;93346;-73
2023/04/29 10:57:57;;;;;;;9.43;4.60;;;;;;;;;;4961181;28;92539;-73
2023/04/29 11:00:30;;;;;;;12.38;4.97;;;;;;;;;;4960225;28;93313;-73
2023/04/29 11:02:57;;;;;;;9.65;4.82;;;;;;;;;;4963512;28;91932;-74
2023/04/29 11:05:30;;;;;;;9.73;5.10;;;;;;;;;;4975836;28;92780;-74
2023/04/29 11:08:15;;;;;;;8.80;4.38;;;;;;;;;;4975866;28;94502;-75
2023/04/29 11:10:42;;;;;;;8.93;4.93;;;;;;;;;;4965969;28;94825;-75
2023/04/29 11:13:25;;;;;;;9.90;4.93;;;;;;;;;;4971937;28;95877;-74
2023/04/29 11:15:51;;;;;;;10.43;4.88;;;;;;;;;;4976991;28;93447;-74
2023/04/29 11:18:18;;;;;;;9.50;4.28;;;;;;;;;;4971502;28;92842;-75
2023/04/29 11:21:02;;;;;;;8.02;4.68;;;;;;;;;;4969255;28;93148;-75
2023/04/29 11:23:29;;;;;;;10.88;4.05;;;;;;;;;;4967713;28;94887;-76
2023/04/29 11:25:56;;;;;;;8.65;4.30;;;;;;;;;;4960776;28;93068;-76
2023/04/29 11:28:26;;;;;;;9.38;4.15;;;;;;;;;;4957206;28;92741;-75
2023/04/29 11:30:53;;;;;;;6.88;4.20;;;;;;;;;;4956812;28;92769;-75
2023/04/29 11:33:19;;;;;;;6.60;4.20;;;;;;;;;;4972181;28;93029;-74
2023/04/29 11:35:46;;;;;;;7.32;4.15;;;;;;;;;;4974523;28;96780;-74
2023/04/29 11:38:12;;;;;;;7.30;3.97;;;;;;;;;;4958656;28;92427;-75
2023/04/29 11:40:47;;;;;;;5.70;4.07;;;;;;;;;;4956039;28;93066;-76
2023/04/29 11:43:17;;;;;;;6.97;4.32;;;;;;;;;;4967634;28;94883;-76
2023/04/29 11:45:45;;;;;;;7.78;4.13;;;;;;;;;;4972313;28;92520;-73
2023/04/29 11:48:18;;;;;;;10.20;4.30;;;;;;;;;;4970944;28;92584;-75
2023/04/29 11:50:45;;;;;;;6.47;4.05;;;;;;;;;;4956172;28;92450;-74
2023/04/29 11:53:12;;;;;;;6.25;3.92;;;;;;;;;;4968285;28;93492;-73
2023/04/29 11:55:40;;;;;;;7.43;4.15;;;;;;;;;;4973282;28;94774;-74
2023/04/29 11:58:07;;;;;;;7.30;4.20;;;;;;;;;;4970722;28;92765;-74
2023/04/29 12:00:33;;;;;;;11.20;4.28;;;;;;;;;;4966071;28;94873;-73
2023/04/29 12:03:00;;;;;;;11.65;4.20;;;;;;;;;;4962547;28;93657;-73
2023/04/29 12:05:26;;;;;;;7.25;4.20;;;;;;;;;;4975694;28;92405;-74
2023/04/29 12:07:55;;;;;;;5.72;3.90;;;;;;;;;;4969780;28;92522;-74
2023/04/29 12:10:22;;;;;;;6.57;4.40;;;;;;;;;;4955561;28;92784;-74
2023/04/29 12:12:48;;;;;;;7.53;3.85;;;;;;;;;;4970343;28;93164;-74
2023/04/29 12:15:14;;;;;;;11.80;4.97;;;;;;;;;;4975386;28;93533;-74
2023/04/29 12:17:41;;;;;;;8.27;4.13;;;;;;;;;;4976817;28;91756;-74
2023/04/29 12:20:09;;;;;;;8.27;4.18;;;;;;;;;;4965272;28;93466;-74
2023/04/29 12:22:36;;;;;;;6.22;3.88;;;;;;;;;;4969213;28;95009;-74
2023/04/29 12:25:02;;;;;;;8.63;4.30;;;;;;;;;;4961585;28;95561;-75
2023/04/29 12:27:29;;;;;;;7.90;4.50;;;;;;;;;;4969251;28;96279;-72
2023/04/29 12:29:56;;;;;;;6.43;3.95;;;;;;;;;;4967252;28;94485;-73
2023/04/29 12:32:23;;;;;;;9.35;4.38;;;;;;;;;;4973741;28;93320;-75
2023/04/29 12:34:51;;;;;;;6.18;4.32;;;;;;;;;;4969952;28;93897;-74
2023/04/29 12:37:18;;;;;;;9.68;5.07;;;;;;;;;;4957052;28;92452;-75
2023/04/29 12:39:44;;;;;;;9.32;4.47;;;;;;;;;;4959847;28;93281;-74
2023/04/29 12:42:15;;;;;;;4.88;3.70;;;;;;;;;;4963807;28;92699;-74
2023/04/29 12:44:43;;;;;;;10.07;3.90;;;;;;;;;;4967741;28;92594;-74
2023/04/29 12:47:10;;;;;;;9.18;4.28;;;;;;;;;;4966352;28;93162;-74
2023/04/29 12:49:39;;;;;;;24.15;15.27;;;;;;;;;;4962558;28;97176;-74
2023/04/29 12:52:09;;;;;;;13.48;6.78;;;;;;;;;;4966467;28;92427;-74
2023/04/29 12:54:35;;;;;;;11.30;5.35;;;;;;;;;;4972595;28;93361;-74
2023/04/29 12:57:03;;;;;;;10.43;4.60;;;;;;;;;;4975190;28;92670;-74
2023/04/29 12:59:29;;;;;;;9.40;4.15;;;;;;;;;;4975005;28;92496;-74
2023/04/29 13:01:55;;;;;;;5.95;3.28;;;;;;;;;;4970506;28;93423;-74
2023/04/29 13:04:22;;;;;;;4.75;3.17;;;;;;;;;;4975170;28;92462;-74
2023/04/29 13:06:50;;;;;;;9.18;4.97;;;;;;;;;;4973383;28;93109;-74
2023/04/29 13:09:16;;;;;;;8.52;5.10;;;;;;;;;;4956041;28;93434;-73
2023/04/29 13:11:44;;;;;;;10.85;5.03;;;;;;;;;;4963607;28;92671;-73
2023/04/29 13:14:11;;;;;;;9.27;4.70;;;;;;;;;;4969291;28;95886;-73
2023/04/29 13:16:37;;;;;;;6.65;4.40;;;;;;;;;;4970261;28;92870;-73
2023/04/29 13:19:03;;;;;;;13.88;4.25;;;;;;;;;;4966875;28;93406;-75
2023/04/29 13:21:49;;;;;;;8.00;4.63;;;;;;;;;;4964438;28;93399;-75
2023/04/29 13:24:17;;;;;;;6.40;4.38;;;;;;;;;;4971831;28;93372;-76
2023/04/29 13:26:44;;;;;;;10.45;4.32;;;;;;;;;;4959969;28;93149;-75
2023/04/29 13:29:11;;;;;;;10.50;4.03;;;;;;;;;;4964693;28;94455;-75
2023/04/29 16:04:10;;;;;;;10.52;3.45;;;;;;;;;;5108498;27;86337;-67
2023/04/29 16:06:36;;;;;;;7.35;3.53;;;;;;;;;;5095809;27;86927;-68
2023/04/29 16:09:03;;;;;;;8.15;3.63;;;;;;;;;;5085232;27;87370;-69
2023/04/29 16:11:30;;;;;;;7.68;3.42;;;;;;;;;;5095414;27;87324;-69
2023/04/29 16:13:56;;;;;;;7.07;3.13;;;;;;;;;;5091699;27;87848;-69
2023/04/29 16:16:23;;;;;;;6.95;3.25;;;;;;;;;;5095245;27;87300;-69
2023/04/29 16:18:50;;;;;;;5.32;3.17;;;;;;;;;;5095241;27;87664;-68
2023/04/29 16:21:16;;;;;;;10.07;2.95;;;;;;;;;;5089677;27;88816;-69
2023/04/29 16:23:43;;;;;;;6.03;3.35;;;;;;;;;;5086973;27;87288;-69
2023/04/29 16:26:09;;;;;;;9.70;3.60;;;;;;;;;;5095487;27;86826;-68
2023/04/29 16:28:36;;;;;;;8.15;3.40;;;;;;;;;;5095889;27;88224;-68
2023/04/29 16:31:02;;;;;;;7.32;3.40;;;;;;;;;;5095611;27;87474;-67
2023/04/29 16:33:29;;;;;;;5.95;3.08;;;;;;;;;;5093940;27;88227;-68
2023/04/29 16:35:57;;;;;;;9.32;3.80;;;;;;;;;;5094842;27;88739;-68
2023/04/29 16:38:23;;;;;;;5.65;3.20;;;;;;;;;;5095482;27;87461;-68
2023/04/29 16:40:50;;;;;;;5.72;2.53;;;;;;;;;;5095557;27;89162;-65
2023/04/29 16:43:16;;;;;;;5.53;2.78;;;;;;;;;;5085678;27;88016;-67
2023/04/29 16:45:43;;;;;;;5.65;2.33;;;;;;;;;;5082609;27;88745;-66
2023/04/29 16:48:09;;;;;;;4.22;2.45;;;;;;;;;;5076773;27;88146;-67
2023/04/29 16:50:36;;;;;;;4.50;1.95;;;;;;;;;;5082453;27;88667;-69
2023/04/29 16:53:03;;;;;;;3.63;1.80;;;;;;;;;;5065920;27;88256;-68
2023/04/29 16:55:29;;;;;;;6.45;1.95;;;;;;;;;;5080599;27;88331;-68
2023/04/29 16:57:56;;;;;;;1.95;1.30;;;;;;;;;;5087009;27;88860;-67
2023/04/29 17:00:22;;;;;;;4.65;1.45;;;;;;;;;;5074357;27;87991;-68